Terminal Aerodrome Forecast
Issued by NWS

Home | Current Version | Previous Version | Text Only | Print | Product List | Glossary On
Versions: 1 2 3 4 5 6 7 8 9 10 11 12 13 14
000
FTUS43 KGLD 170526
TAFMCK
TAF
KMCK 170526Z 1706/1806 18007KT P6SM BKN200
     FM171000 25004KT P6SM BKN250
      TEMPO 1710/1712 5SM BR
     FM172000 28008KT P6SM BKN250
     FM172300 02009KT P6SM BKN200
     FM180300 34013G20KT P6SM -RA BKN070=

USA.gov is the U.S. government's official web portal to all federal, state and local government web resources and services.